sensor_id;sensor_type;location;lat;lon;timestamp;temperature;humidity
4759;DHT22;2393;50.560;12.636;2022-12-18T00:00:06;-13.10;99.90
4759;DHT22;2393;50.560;12.636;2022-12-18T00:02:39;-13.10;99.90
4759;DHT22;2393;50.560;12.636;2022-12-18T00:05:08;-13.20;99.90
4759;DHT22;2393;50.560;12.636;2022-12-18T00:07:36;-13.20;99.90
4759;DHT22;2393;50.560;12.636;2022-12-18T00:10:07;-13.30;99.90
4759;DHT22;2393;50.560;12.636;2022-12-18T00:12:35;-13.30;99.90
4759;DHT22;2393;50.560;12.636;2022-12-18T00:15:07;-13.30;99.90
4759;DHT22;2393;50.560;12.636;2022-12-18T00:17:35;-13.30;99.90
4759;DHT22;2393;50.560;12.636;2022-12-18T00:20:03;-13.30;99.90
4759;DHT22;2393;50.560;12.636;2022-12-18T00:22:33;-13.40;99.90
4759;DHT22;2393;50.560;12.636;2022-12-18T00:25:01;-13.40;99.90
4759;DHT22;2393;50.560;12.636;2022-12-18T00:27:30;-13.40;99.90
4759;DHT22;2393;50.560;12.636;2022-12-18T00:29:58;-13.50;99.90
4759;DHT22;2393;50.560;12.636;2022-12-18T00:32:28;-13.50;99.90
4759;DHT22;2393;50.560;12.636;2022-12-18T00:34:57;-13.50;99.90
4759;DHT22;2393;50.560;12.636;2022-12-18T00:37:25;-13.50;99.90
4759;DHT22;2393;50.560;12.636;2022-12-18T00:39:54;-13.50;99.90
4759;DHT22;2393;50.560;12.636;2022-12-18T00:42:24;-13.50;99.90
4759;DHT22;2393;50.560;12.636;2022-12-18T00:45:09;-13.40;99.90
4759;DHT22;2393;50.560;12.636;2022-12-18T00:47:41;-13.40;99.90
4759;DHT22;2393;50.560;12.636;2022-12-18T00:50:10;-13.50;99.90
4759;DHT22;2393;50.560;12.636;2022-12-18T00:52:41;-13.50;99.90
4759;DHT22;2393;50.560;12.636;2022-12-18T00:55:09;-13.60;99.90
4759;DHT22;2393;50.560;12.636;2022-12-18T00:57:37;-13.50;99.90
4759;DHT22;2393;50.560;12.636;2022-12-18T01:00:10;-13.50;99.90
4759;DHT22;2393;50.560;12.636;2022-12-18T01:02:40;-13.60;99.90
4759;DHT22;2393;50.560;12.636;2022-12-18T01:05:09;-13.60;99.90
4759;DHT22;2393;50.560;12.636;2022-12-18T01:07:38;-13.60;99.90
4759;DHT22;2393;50.560;12.636;2022-12-18T01:10:07;-13.60;99.90
4759;DHT22;2393;50.560;12.636;2022-12-18T01:12:37;-13.60;99.90
4759;DHT22;2393;50.560;12.636;2022-12-18T01:15:07;-13.60;99.90
4759;DHT22;2393;50.560;12.636;2022-12-18T01:17:36;-13.60;99.90
4759;DHT22;2393;50.560;12.636;2022-12-18T01:20:07;-13.60;99.90
4759;DHT22;2393;50.560;12.636;2022-12-18T01:22:37;-13.70;99.90
4759;DHT22;2393;50.560;12.636;2022-12-18T01:25:07;-13.80;99.90
4759;DHT22;2393;50.560;12.636;2022-12-18T01:27:36;-13.80;99.90
4759;DHT22;2393;50.560;12.636;2022-12-18T01:30:04;-13.80;99.90
4759;DHT22;2393;50.560;12.636;2022-12-18T01:32:33;-13.90;99.90
4759;DHT22;2393;50.560;12.636;2022-12-18T01:35:01;-13.90;99.90
4759;DHT22;2393;50.560;12.636;2022-12-18T01:37:31;-14.00;99.90
4759;DHT22;2393;50.560;12.636;2022-12-18T01:40:01;-14.00;99.90
4759;DHT22;2393;50.560;12.636;2022-12-18T01:42:29;-14.00;99.90
4759;DHT22;2393;50.560;12.636;2022-12-18T01:45:00;-14.00;99.90
4759;DHT22;2393;50.560;12.636;2022-12-18T01:47:33;-14.00;99.90
4759;DHT22;2393;50.560;12.636;2022-12-18T01:50:06;-14.00;99.90
4759;DHT22;2393;50.560;12.636;2022-12-18T01:52:39;-14.10;99.90
4759;DHT22;2393;50.560;12.636;2022-12-18T01:55:09;-14.10;99.90
4759;DHT22;2393;50.560;12.636;2022-12-18T01:57:39;-14.10;99.90
4759;DHT22;2393;50.560;12.636;2022-12-18T02:00:13;-14.10;99.90
4759;DHT22;2393;50.560;12.636;2022-12-18T02:02:43;-14.20;99.90
4759;DHT22;2393;50.560;12.636;2022-12-18T02:05:15;-14.20;99.90
4759;DHT22;2393;50.560;12.636;2022-12-18T02:07:56;-14.20;99.90
4759;DHT22;2393;50.560;12.636;2022-12-18T02:10:31;-14.20;99.90
4759;DHT22;2393;50.560;12.636;2022-12-18T02:13:08;-14.20;99.90
4759;DHT22;2393;50.560;12.636;2022-12-18T02:15:46;-14.20;99.90
4759;DHT22;2393;50.560;12.636;2022-12-18T02:18:19;-14.10;99.90
4759;DHT22;2393;50.560;12.636;2022-12-18T02:20:55;-14.10;99.90
4759;DHT22;2393;50.560;12.636;2022-12-18T02:23:41;-14.10;99.90
4759;DHT22;2393;50.560;12.636;2022-12-18T02:26:21;-14.20;99.90
4759;DHT22;2393;50.560;12.636;2022-12-18T02:28:55;-14.20;99.90
4759;DHT22;2393;50.560;12.636;2022-12-18T02:31:30;-14.20;99.90
4759;DHT22;2393;50.560;12.636;2022-12-18T02:34:08;-14.30;99.90
4759;DHT22;2393;50.560;12.636;2022-12-18T02:36:40;-14.40;99.90
4759;DHT22;2393;50.560;12.636;2022-12-18T02:39:12;-14.40;99.90
4759;DHT22;2393;50.560;12.636;2022-12-18T02:41:56;-14.30;99.90
4759;DHT22;2393;50.560;12.636;2022-12-18T02:44:25;-14.30;99.90
4759;DHT22;2393;50.560;12.636;2022-12-18T02:46:55;-14.30;99.90
4759;DHT22;2393;50.560;12.636;2022-12-18T02:49:33;-14.30;99.90
4759;DHT22;2393;50.560;12.636;2022-12-18T02:52:10;-14.30;99.90
4759;DHT22;2393;50.560;12.636;2022-12-18T02:55:00;-14.30;99.90
4759;DHT22;2393;50.560;12.636;2022-12-18T02:57:40;-14.30;99.90
4759;DHT22;2393;50.560;12.636;2022-12-18T03:00:12;-14.30;99.90
4759;DHT22;2393;50.560;12.636;2022-12-18T03:02:46;-14.30;99.90
4759;DHT22;2393;50.560;12.636;2022-12-18T03:05:18;-14.30;99.90
4759;DHT22;2393;50.560;12.636;2022-12-18T03:07:51;-14.30;99.90
4759;DHT22;2393;50.560;12.636;2022-12-18T03:10:26;-14.30;99.90
4759;DHT22;2393;50.560;12.636;2022-12-18T03:13:03;-14.20;99.90
4759;DHT22;2393;50.560;12.636;2022-12-18T03:15:35;-14.30;99.90
4759;DHT22;2393;50.560;12.636;2022-12-18T03:18:12;-14.20;99.90
4759;DHT22;2393;50.560;12.636;2022-12-18T03:20:42;-14.20;99.90
4759;DHT22;2393;50.560;12.636;2022-12-18T03:23:18;-14.20;99.90
4759;DHT22;2393;50.560;12.636;2022-12-18T03:25:56;-14.20;99.90
4759;DHT22;2393;50.560;12.636;2022-12-18T03:28:43;-14.20;99.90
4759;DHT22;2393;50.560;12.636;2022-12-18T03:31:14;-14.30;99.90
4759;DHT22;2393;50.560;12.636;2022-12-18T03:33:48;-14.30;99.90
4759;DHT22;2393;50.560;12.636;2022-12-18T03:36:19;-14.30;99.90
4759;DHT22;2393;50.560;12.636;2022-12-18T03:38:47;-14.40;99.90
4759;DHT22;2393;50.560;12.636;2022-12-18T03:41:22;-14.40;99.90
4759;DHT22;2393;50.560;12.636;2022-12-18T03:44:26;-14.40;99.90
4759;DHT22;2393;50.560;12.636;2022-12-18T03:47:02;-14.40;99.90
4759;DHT22;2393;50.560;12.636;2022-12-18T03:49:35;-14.40;99.90
4759;DHT22;2393;50.560;12.636;2022-12-18T03:52:09;-14.40;99.90
4759;DHT22;2393;50.560;12.636;2022-12-18T03:54:41;-14.30;99.90
4759;DHT22;2393;50.560;12.636;2022-12-18T03:57:16;-14.30;99.90
4759;DHT22;2393;50.560;12.636;2022-12-18T03:59:54;-14.30;99.90
4759;DHT22;2393;50.560;12.636;2022-12-18T04:02:28;-14.30;99.90
4759;DHT22;2393;50.560;12.636;2022-12-18T04:05:03;-14.40;99.90
4759;DHT22;2393;50.560;12.636;2022-12-18T04:07:33;-14.40;99.90
4759;DHT22;2393;50.560;12.636;2022-12-18T04:10:02;-14.40;99.90
4759;DHT22;2393;50.560;12.636;2022-12-18T04:12:31;-14.40;99.90
4759;DHT22;2393;50.560;12.636;2022-12-18T04:15:01;-14.40;99.90
4759;DHT22;2393;50.560;12.636;2022-12-18T04:17:30;-14.40;99.90
4759;DHT22;2393;50.560;12.636;2022-12-18T04:19:58;-14.50;99.90
4759;DHT22;2393;50.560;12.636;2022-12-18T04:22:26;-14.50;99.90
4759;DHT22;2393;50.560;12.636;2022-12-18T04:24:58;-14.60;99.90
4759;DHT22;2393;50.560;12.636;2022-12-18T04:27:34;-14.60;99.90
4759;DHT22;2393;50.560;12.636;2022-12-18T04:30:07;-14.70;99.90
4759;DHT22;2393;50.560;12.636;2022-12-18T04:32:35;-14.80;99.90
4759;DHT22;2393;50.560;12.636;2022-12-18T04:35:04;-14.80;99.90
4759;DHT22;2393;50.560;12.636;2022-12-18T04:37:35;-14.80;99.90
4759;DHT22;2393;50.560;12.636;2022-12-18T04:40:05;-14.80;99.90
4759;DHT22;2393;50.560;12.636;2022-12-18T04:42:40;-14.80;99.90
4759;DHT22;2393;50.560;12.636;2022-12-18T04:45:10;-14.80;99.90
4759;DHT22;2393;50.560;12.636;2022-12-18T04:47:38;-14.80;99.90
4759;DHT22;2393;50.560;12.636;2022-12-18T04:50:06;-14.80;99.90
4759;DHT22;2393;50.560;12.636;2022-12-18T04:52:35;-14.80;99.90
4759;DHT22;2393;50.560;12.636;2022-12-18T04:55:04;-14.80;99.90
4759;DHT22;2393;50.560;12.636;2022-12-18T04:57:32;-14.80;99.90
4759;DHT22;2393;50.560;12.636;2022-12-18T05:00:00;-14.70;99.90
4759;DHT22;2393;50.560;12.636;2022-12-18T05:02:30;-14.70;99.90
4759;DHT22;2393;50.560;12.636;2022-12-18T05:05:00;-14.60;99.90
4759;DHT22;2393;50.560;12.636;2022-12-18T05:07:28;-14.60;99.90
4759;DHT22;2393;50.560;12.636;2022-12-18T05:09:57;-14.60;99.90
4759;DHT22;2393;50.560;12.636;2022-12-18T05:12:25;-14.60;99.90
4759;DHT22;2393;50.560;12.636;2022-12-18T05:14:53;-14.60;99.90
4759;DHT22;2393;50.560;12.636;2022-12-18T05:17:24;-14.60;99.90
4759;DHT22;2393;50.560;12.636;2022-12-18T05:19:54;-14.70;99.90
4759;DHT22;2393;50.560;12.636;2022-12-18T05:22:22;-14.70;99.90
4759;DHT22;2393;50.560;12.636;2022-12-18T05:24:52;-14.80;99.90
4759;DHT22;2393;50.560;12.636;2022-12-18T05:27:20;-14.90;99.90
4759;DHT22;2393;50.560;12.636;2022-12-18T05:29:49;-15.00;99.90
4759;DHT22;2393;50.560;12.636;2022-12-18T05:32:18;-15.00;99.90
4759;DHT22;2393;50.560;12.636;2022-12-18T05:34:46;-15.00;99.90
4759;DHT22;2393;50.560;12.636;2022-12-18T05:37:15;-15.00;99.90
4759;DHT22;2393;50.560;12.636;2022-12-18T05:39:43;-15.00;99.90
4759;DHT22;2393;50.560;12.636;2022-12-18T05:42:11;-15.00;99.90
4759;DHT22;2393;50.560;12.636;2022-12-18T05:44:39;-15.00;99.90
4759;DHT22;2393;50.560;12.636;2022-12-18T05:47:08;-15.10;99.90
4759;DHT22;2393;50.560;12.636;2022-12-18T05:49:37;-15.10;99.90
4759;DHT22;2393;50.560;12.636;2022-12-18T05:52:05;-15.10;99.90
4759;DHT22;2393;50.560;12.636;2022-12-18T05:54:34;-15.10;99.90
4759;DHT22;2393;50.560;12.636;2022-12-18T05:57:04;-15.10;99.90
4759;DHT22;2393;50.560;12.636;2022-12-18T05:59:32;-15.10;99.90
4759;DHT22;2393;50.560;12.636;2022-12-18T06:02:01;-15.10;99.90
4759;DHT22;2393;50.560;12.636;2022-12-18T06:04:31;-15.10;99.90
4759;DHT22;2393;50.560;12.636;2022-12-18T06:06:59;-15.10;99.90
4759;DHT22;2393;50.560;12.636;2022-12-18T06:09:29;-15.10;99.90
4759;DHT22;2393;50.560;12.636;2022-12-18T06:11:58;-15.00;99.90
4759;DHT22;2393;50.560;12.636;2022-12-18T06:14:27;-15.10;99.90
4759;DHT22;2393;50.560;12.636;2022-12-18T06:16:55;-15.10;99.90
4759;DHT22;2393;50.560;12.636;2022-12-18T06:19:23;-15.20;99.90
4759;DHT22;2393;50.560;12.636;2022-12-18T06:21:53;-15.20;99.90
4759;DHT22;2393;50.560;12.636;2022-12-18T06:24:21;-15.20;99.90
4759;DHT22;2393;50.560;12.636;2022-12-18T06:26:49;-15.20;99.90
4759;DHT22;2393;50.560;12.636;2022-12-18T06:29:18;-15.20;99.90
4759;DHT22;2393;50.560;12.636;2022-12-18T06:31:46;-15.20;99.90
4759;DHT22;2393;50.560;12.636;2022-12-18T06:34:14;-15.10;99.90
4759;DHT22;2393;50.560;12.636;2022-12-18T06:36:42;-15.10;99.90
4759;DHT22;2393;50.560;12.636;2022-12-18T06:39:10;-15.20;99.90
4759;DHT22;2393;50.560;12.636;2022-12-18T06:41:38;-15.20;99.90
4759;DHT22;2393;50.560;12.636;2022-12-18T06:44:06;-15.20;99.90
4759;DHT22;2393;50.560;12.636;2022-12-18T06:46:38;-15.30;99.90
4759;DHT22;2393;50.560;12.636;2022-12-18T06:49:07;-15.30;99.90
4759;DHT22;2393;50.560;12.636;2022-12-18T06:51:36;-15.30;99.90
4759;DHT22;2393;50.560;12.636;2022-12-18T06:54:04;-15.30;99.90
4759;DHT22;2393;50.560;12.636;2022-12-18T06:56:33;-15.40;99.90
4759;DHT22;2393;50.560;12.636;2022-12-18T06:59:01;-15.40;99.90
4759;DHT22;2393;50.560;12.636;2022-12-18T07:01:29;-15.40;99.90
4759;DHT22;2393;50.560;12.636;2022-12-18T07:03:59;-15.40;99.90
4759;DHT22;2393;50.560;12.636;2022-12-18T07:06:27;-15.40;99.90
4759;DHT22;2393;50.560;12.636;2022-12-18T07:08:56;-15.30;99.90
4759;DHT22;2393;50.560;12.636;2022-12-18T07:11:25;-15.30;99.90
4759;DHT22;2393;50.560;12.636;2022-12-18T07:13:53;-15.40;99.90
4759;DHT22;2393;50.560;12.636;2022-12-18T07:16:23;-15.40;99.90
4759;DHT22;2393;50.560;12.636;2022-12-18T07:18:54;-15.40;99.90
4759;DHT22;2393;50.560;12.636;2022-12-18T07:21:24;-15.40;99.90
4759;DHT22;2393;50.560;12.636;2022-12-18T07:23:52;-15.40;99.90
4759;DHT22;2393;50.560;12.636;2022-12-18T07:26:21;-15.40;99.90
4759;DHT22;2393;50.560;12.636;2022-12-18T07:28:52;-15.40;99.90
4759;DHT22;2393;50.560;12.636;2022-12-18T07:31:22;-15.40;99.90
4759;DHT22;2393;50.560;12.636;2022-12-18T07:33:50;-15.30;99.90
4759;DHT22;2393;50.560;12.636;2022-12-18T07:36:19;-15.30;99.90
4759;DHT22;2393;50.560;12.636;2022-12-18T07:38:49;-15.30;99.90
4759;DHT22;2393;50.560;12.636;2022-12-18T07:41:18;-15.30;99.90
4759;DHT22;2393;50.560;12.636;2022-12-18T07:43:47;-15.30;99.90
4759;DHT22;2393;50.560;12.636;2022-12-18T07:46:15;-15.20;99.90
4759;DHT22;2393;50.560;12.636;2022-12-18T07:48:44;-15.20;99.90
4759;DHT22;2393;50.560;12.636;2022-12-18T07:51:16;-15.10;99.90
4759;DHT22;2393;50.560;12.636;2022-12-18T07:53:44;-15.00;99.90
4759;DHT22;2393;50.560;12.636;2022-12-18T07:56:20;-14.90;99.90
4759;DHT22;2393;50.560;12.636;2022-12-18T07:58:54;-14.80;99.90
4759;DHT22;2393;50.560;12.636;2022-12-18T08:01:22;-14.70;99.90
4759;DHT22;2393;50.560;12.636;2022-12-18T08:03:51;-14.60;99.90
4759;DHT22;2393;50.560;12.636;2022-12-18T08:06:19;-14.60;99.90
4759;DHT22;2393;50.560;12.636;2022-12-18T08:08:51;-14.50;99.90
4759;DHT22;2393;50.560;12.636;2022-12-18T08:11:21;-14.50;99.90
4759;DHT22;2393;50.560;12.636;2022-12-18T08:13:50;-14.40;99.90
4759;DHT22;2393;50.560;12.636;2022-12-18T08:16:19;-14.30;99.90
4759;DHT22;2393;50.560;12.636;2022-12-18T08:18:48;-14.20;99.90
4759;DHT22;2393;50.560;12.636;2022-12-18T08:21:18;-14.10;99.90
4759;DHT22;2393;50.560;12.636;2022-12-18T08:23:48;-14.00;99.90
4759;DHT22;2393;50.560;12.636;2022-12-18T08:26:17;-13.80;99.90
4759;DHT22;2393;50.560;12.636;2022-12-18T08:28:48;-13.60;99.90
4759;DHT22;2393;50.560;12.636;2022-12-18T08:31:17;-13.30;99.90
4759;DHT22;2393;50.560;12.636;2022-12-18T08:33:45;-13.20;99.90
4759;DHT22;2393;50.560;12.636;2022-12-18T08:36:16;-13.10;99.90
4759;DHT22;2393;50.560;12.636;2022-12-18T08:38:44;-13.00;99.90
4759;DHT22;2393;50.560;12.636;2022-12-18T08:41:15;-12.80;99.90
4759;DHT22;2393;50.560;12.636;2022-12-18T08:43:44;-12.60;99.90
4759;DHT22;2393;50.560;12.636;2022-12-18T08:46:34;-12.30;99.90
4759;DHT22;2393;50.560;12.636;2022-12-18T08:49:03;-11.90;99.90
4759;DHT22;2393;50.560;12.636;2022-12-18T08:51:32;-11.70;99.90
4759;DHT22;2393;50.560;12.636;2022-12-18T08:54:00;-11.30;99.90
4759;DHT22;2393;50.560;12.636;2022-12-18T08:56:30;-11.10;99.90
4759;DHT22;2393;50.560;12.636;2022-12-18T08:58:58;-10.70;99.90
4759;DHT22;2393;50.560;12.636;2022-12-18T09:01:27;-10.10;99.90
4759;DHT22;2393;50.560;12.636;2022-12-18T09:03:58;-9.80;99.90
4759;DHT22;2393;50.560;12.636;2022-12-18T09:06:26;-9.30;99.90
4759;DHT22;2393;50.560;12.636;2022-12-18T09:08:54;-8.50;99.90
4759;DHT22;2393;50.560;12.636;2022-12-18T09:11:23;-8.10;99.90
4759;DHT22;2393;50.560;12.636;2022-12-18T09:13:52;-8.00;99.90
4759;DHT22;2393;50.560;12.636;2022-12-18T09:16:21;-7.70;99.90
4759;DHT22;2393;50.560;12.636;2022-12-18T09:18:59;-7.40;99.90
4759;DHT22;2393;50.560;12.636;2022-12-18T09:21:29;-7.10;99.90
4759;DHT22;2393;50.560;12.636;2022-12-18T09:24:03;-6.70;99.90
4759;DHT22;2393;50.560;12.636;2022-12-18T09:26:35;-6.60;99.90
4759;DHT22;2393;50.560;12.636;2022-12-18T09:29:03;-6.60;99.90
4759;DHT22;2393;50.560;12.636;2022-12-18T09:31:34;-6.70;99.90
4759;DHT22;2393;50.560;12.636;2022-12-18T09:34:03;-6.70;99.90
4759;DHT22;2393;50.560;12.636;2022-12-18T09:36:31;-6.70;99.90
4759;DHT22;2393;50.560;12.636;2022-12-18T09:38:59;-6.70;99.90
4759;DHT22;2393;50.560;12.636;2022-12-18T09:41:50;-6.60;99.90
4759;DHT22;2393;50.560;12.636;2022-12-18T09:44:23;-6.50;99.90
4759;DHT22;2393;50.560;12.636;2022-12-18T09:47:01;-6.40;99.90
4759;DHT22;2393;50.560;12.636;2022-12-18T09:49:35;-6.00;99.90
4759;DHT22;2393;50.560;12.636;2022-12-18T09:52:09;-5.60;99.90
4759;DHT22;2393;50.560;12.636;2022-12-18T09:54:44;-5.30;99.90
4759;DHT22;2393;50.560;12.636;2022-12-18T09:57:15;-5.00;99.90
4759;DHT22;2393;50.560;12.636;2022-12-18T09:59:49;-4.40;99.90
4759;DHT22;2393;50.560;12.636;2022-12-18T10:02:21;-3.20;99.90
4759;DHT22;2393;50.560;12.636;2022-12-18T10:05:06;-1.70;99.90
4759;DHT22;2393;50.560;12.636;2022-12-18T10:07:46;-0.20;99.90
4759;DHT22;2393;50.560;12.636;2022-12-18T10:10:32;1.30;99.90
4759;DHT22;2393;50.560;12.636;2022-12-18T10:13:09;2.60;99.90
4759;DHT22;2393;50.560;12.636;2022-12-18T10:15:49;3.90;98.90
4759;DHT22;2393;50.560;12.636;2022-12-18T10:18:28;5.00;95.00
4759;DHT22;2393;50.560;12.636;2022-12-18T10:21:09;5.90;92.20
4759;DHT22;2393;50.560;12.636;2022-12-18T10:23:41;6.80;91.10
4759;DHT22;2393;50.560;12.636;2022-12-18T10:26:16;7.60;88.60
4759;DHT22;2393;50.560;12.636;2022-12-18T10:28:45;8.30;87.00
4759;DHT22;2393;50.560;12.636;2022-12-18T10:31:16;8.90;84.60
4759;DHT22;2393;50.560;12.636;2022-12-18T10:33:45;9.40;82.90
4759;DHT22;2393;50.560;12.636;2022-12-18T10:36:14;9.90;81.00
4759;DHT22;2393;50.560;12.636;2022-12-18T10:38:42;10.30;78.70
4759;DHT22;2393;50.560;12.636;2022-12-18T10:41:24;10.60;75.70
4759;DHT22;2393;50.560;12.636;2022-12-18T10:44:10;10.80;76.60
4759;DHT22;2393;50.560;12.636;2022-12-18T10:46:39;11.00;74.90
4759;DHT22;2393;50.560;12.636;2022-12-18T10:49:19;11.20;74.50
4759;DHT22;2393;50.560;12.636;2022-12-18T10:51:51;11.30;74.60
4759;DHT22;2393;50.560;12.636;2022-12-18T10:54:32;11.50;72.90
4759;DHT22;2393;50.560;12.636;2022-12-18T10:57:15;11.50;73.00
4759;DHT22;2393;50.560;12.636;2022-12-18T10:59:51;11.50;71.70
4759;DHT22;2393;50.560;12.636;2022-12-18T11:02:28;11.40;72.40
4759;DHT22;2393;50.560;12.636;2022-12-18T11:05:01;11.30;72.40
4759;DHT22;2393;50.560;12.636;2022-12-18T11:07:47;11.40;73.20
4759;DHT22;2393;50.560;12.636;2022-12-18T11:10:16;11.40;72.40
4759;DHT22;2393;50.560;12.636;2022-12-18T11:12:45;11.50;71.90
4759;DHT22;2393;50.560;12.636;2022-12-18T11:15:16;11.50;72.50
4759;DHT22;2393;50.560;12.636;2022-12-18T11:17:48;11.40;72.60
4759;DHT22;2393;50.560;12.636;2022-12-18T11:20:26;11.50;72.60
4759;DHT22;2393;50.560;12.636;2022-12-18T11:22:58;11.50;71.90
4759;DHT22;2393;50.560;12.636;2022-12-18T11:25:28;10.90;68.30
4759;DHT22;2393;50.560;12.636;2022-12-18T11:28:02;10.10;66.80
4759;DHT22;2393;50.560;12.636;2022-12-18T11:30:31;9.60;67.90
4759;DHT22;2393;50.560;12.636;2022-12-18T11:33:03;9.00;68.70
4759;DHT22;2393;50.560;12.636;2022-12-18T11:35:40;8.60;67.80
4759;DHT22;2393;50.560;12.636;2022-12-18T11:38:20;8.30;69.30
4759;DHT22;2393;50.560;12.636;2022-12-18T11:40:54;7.30;68.70
4759;DHT22;2393;50.560;12.636;2022-12-18T11:43:27;6.70;70.10
4759;DHT22;2393;50.560;12.636;2022-12-18T11:46:00;6.00;71.10
4759;DHT22;2393;50.560;12.636;2022-12-18T11:48:34;5.50;72.00
4759;DHT22;2393;50.560;12.636;2022-12-18T11:51:11;5.20;72.30
4759;DHT22;2393;50.560;12.636;2022-12-18T11:53:42;4.90;74.20
4759;DHT22;2393;50.560;12.636;2022-12-18T11:56:26;4.80;74.00
4759;DHT22;2393;50.560;12.636;2022-12-18T11:59:03;5.30;77.10
4759;DHT22;2393;50.560;12.636;2022-12-18T12:01:42;5.80;77.30
4759;DHT22;2393;50.560;12.636;2022-12-18T12:07:25;6.20;73.20
4759;DHT22;2393;50.560;12.636;2022-12-18T12:10:04;6.20;74.20
4759;DHT22;2393;50.560;12.636;2022-12-18T12:12:43;6.20;75.30
4759;DHT22;2393;50.560;12.636;2022-12-18T12:15:27;6.00;75.90
4759;DHT22;2393;50.560;12.636;2022-12-18T12:18:01;5.30;74.90
4759;DHT22;2393;50.560;12.636;2022-12-18T12:20:45;4.90;75.90
4759;DHT22;2393;50.560;12.636;2022-12-18T12:23:22;4.40;77.30
4759;DHT22;2393;50.560;12.636;2022-12-18T12:25:58;4.10;77.70
4759;DHT22;2393;50.560;12.636;2022-12-18T12:28:41;4.00;76.70
4759;DHT22;2393;50.560;12.636;2022-12-18T12:31:23;3.40;78.30
4759;DHT22;2393;50.560;12.636;2022-12-18T12:34:05;3.10;81.10
4759;DHT22;2393;50.560;12.636;2022-12-18T12:36:41;2.80;81.40
4759;DHT22;2393;50.560;12.636;2022-12-18T12:39:18;2.60;84.20
4759;DHT22;2393;50.560;12.636;2022-12-18T12:41:49;2.50;85.20
4759;DHT22;2393;50.560;12.636;2022-12-18T12:44:39;2.30;88.10
4759;DHT22;2393;50.560;12.636;2022-12-18T12:47:13;2.10;90.10
4759;DHT22;2393;50.560;12.636;2022-12-18T12:49:42;1.90;90.80
4759;DHT22;2393;50.560;12.636;2022-12-18T12:52:21;1.90;90.80
4759;DHT22;2393;50.560;12.636;2022-12-18T12:54:52;1.70;91.80
4759;DHT22;2393;50.560;12.636;2022-12-18T12:57:24;1.40;92.70
4759;DHT22;2393;50.560;12.636;2022-12-18T13:00:01;1.20;93.40
4759;DHT22;2393;50.560;12.636;2022-12-18T13:02:35;1.20;93.80
4759;DHT22;2393;50.560;12.636;2022-12-18T13:05:13;1.00;93.50
4759;DHT22;2393;50.560;12.636;2022-12-18T13:07:49;0.80;94.90
4759;DHT22;2393;50.560;12.636;2022-12-18T13:10:31;0.80;94.80
4759;DHT22;2393;50.560;12.636;2022-12-18T13:13:04;0.80;95.40
4759;DHT22;2393;50.560;12.636;2022-12-18T13:15:37;0.70;95.30
4759;DHT22;2393;50.560;12.636;2022-12-18T13:18:18;0.70;95.60
4759;DHT22;2393;50.560;12.636;2022-12-18T13:20:49;0.70;95.80
4759;DHT22;2393;50.560;12.636;2022-12-18T13:23:31;0.90;95.90
4759;DHT22;2393;50.560;12.636;2022-12-18T13:26:00;1.10;95.80
4759;DHT22;2393;50.560;12.636;2022-12-18T13:29:09;1.10;95.50
4759;DHT22;2393;50.560;12.636;2022-12-18T13:31:59;1.20;95.80
4759;DHT22;2393;50.560;12.636;2022-12-18T13:34:29;1.20;95.80
4759;DHT22;2393;50.560;12.636;2022-12-18T13:40:00;1.30;96.30
4759;DHT22;2393;50.560;12.636;2022-12-18T13:42:38;1.30;96.10
4759;DHT22;2393;50.560;12.636;2022-12-18T13:45:41;1.20;95.90
4759;DHT22;2393;50.560;12.636;2022-12-18T13:48:17;1.20;95.80
4759;DHT22;2393;50.560;12.636;2022-12-18T13:50:49;1.10;95.70
4759;DHT22;2393;50.560;12.636;2022-12-18T13:53:21;1.00;95.60
4759;DHT22;2393;50.560;12.636;2022-12-18T13:55:51;0.90;95.60
4759;DHT22;2393;50.560;12.636;2022-12-18T13:58:19;0.70;95.50
4759;DHT22;2393;50.560;12.636;2022-12-18T14:00:49;0.60;95.50
4759;DHT22;2393;50.560;12.636;2022-12-18T14:03:22;0.40;95.40
4759;DHT22;2393;50.560;12.636;2022-12-18T14:05:56;0.20;95.50
4759;DHT22;2393;50.560;12.636;2022-12-18T14:08:32;0.00;95.40
4759;DHT22;2393;50.560;12.636;2022-12-18T14:11:01;-0.20;94.90
4759;DHT22;2393;50.560;12.636;2022-12-18T14:13:35;-0.40;94.50
4759;DHT22;2393;50.560;12.636;2022-12-18T14:16:06;-0.60;94.80
4759;DHT22;2393;50.560;12.636;2022-12-18T14:18:44;-0.80;94.90
4759;DHT22;2393;50.560;12.636;2022-12-18T14:21:20;-1.00;95.10
4759;DHT22;2393;50.560;12.636;2022-12-18T14:23:48;-1.10;95.30
4759;DHT22;2393;50.560;12.636;2022-12-18T14:26:24;-1.30;95.10
4759;DHT22;2393;50.560;12.636;2022-12-18T14:28:55;-1.50;95.30
4759;DHT22;2393;50.560;12.636;2022-12-18T14:31:26;-1.60;95.60
4759;DHT22;2393;50.560;12.636;2022-12-18T14:33:55;-1.70;96.20
4759;DHT22;2393;50.560;12.636;2022-12-18T14:36:25;-1.80;96.50
4759;DHT22;2393;50.560;12.636;2022-12-18T14:38:54;-2.00;96.20
4759;DHT22;2393;50.560;12.636;2022-12-18T14:41:24;-2.10;96.70
4759;DHT22;2393;50.560;12.636;2022-12-18T14:43:54;-2.20;97.10
4759;DHT22;2393;50.560;12.636;2022-12-18T14:46:30;-2.30;97.30
4759;DHT22;2393;50.560;12.636;2022-12-18T14:49:00;-2.40;97.30
4759;DHT22;2393;50.560;12.636;2022-12-18T14:51:31;-2.60;97.40
4759;DHT22;2393;50.560;12.636;2022-12-18T14:54:01;-2.80;97.70
4759;DHT22;2393;50.560;12.636;2022-12-18T14:56:31;-2.90;96.90
4759;DHT22;2393;50.560;12.636;2022-12-18T14:59:01;-2.90;97.80
4759;DHT22;2393;50.560;12.636;2022-12-18T15:01:34;-3.10;97.20
4759;DHT22;2393;50.560;12.636;2022-12-18T15:04:04;-3.00;97.50
4759;DHT22;2393;50.560;12.636;2022-12-18T15:06:35;-3.10;97.80
4759;DHT22;2393;50.560;12.636;2022-12-18T15:09:06;-3.20;98.10
4759;DHT22;2393;50.560;12.636;2022-12-18T15:11:48;-3.30;98.50
4759;DHT22;2393;50.560;12.636;2022-12-18T15:14:41;-3.40;98.10
4759;DHT22;2393;50.560;12.636;2022-12-18T15:17:17;-3.50;98.10
4759;DHT22;2393;50.560;12.636;2022-12-18T15:19:48;-3.60;98.20
4759;DHT22;2393;50.560;12.636;2022-12-18T15:22:21;-3.40;97.80
4759;DHT22;2393;50.560;12.636;2022-12-18T15:24:49;-3.30;98.10
4759;DHT22;2393;50.560;12.636;2022-12-18T15:27:27;-3.20;97.80
4759;DHT22;2393;50.560;12.636;2022-12-18T15:30:15;-3.10;98.30
4759;DHT22;2393;50.560;12.636;2022-12-18T15:32:46;-3.10;97.60
4759;DHT22;2393;50.560;12.636;2022-12-18T15:35:18;-2.80;96.80
4759;DHT22;2393;50.560;12.636;2022-12-18T15:37:47;-2.60;96.40
4759;DHT22;2393;50.560;12.636;2022-12-18T15:40:17;-2.30;96.20
4759;DHT22;2393;50.560;12.636;2022-12-18T15:42:46;-1.90;95.60
4759;DHT22;2393;50.560;12.636;2022-12-18T15:45:31;-1.60;95.30
4759;DHT22;2393;50.560;12.636;2022-12-18T15:48:00;-1.40;95.20
4759;DHT22;2393;50.560;12.636;2022-12-18T15:50:31;-1.20;94.40
4759;DHT22;2393;50.560;12.636;2022-12-18T15:52:59;-1.10;94.10
4759;DHT22;2393;50.560;12.636;2022-12-18T15:55:27;-1.00;94.40
4759;DHT22;2393;50.560;12.636;2022-12-18T15:58:13;-0.90;93.50
4759;DHT22;2393;50.560;12.636;2022-12-18T16:00:42;-0.80;93.60
4759;DHT22;2393;50.560;12.636;2022-12-18T16:03:13;-0.80;93.80
4759;DHT22;2393;50.560;12.636;2022-12-18T16:05:42;-0.80;92.30
4759;DHT22;2393;50.560;12.636;2022-12-18T16:08:10;-0.70;91.90
4759;DHT22;2393;50.560;12.636;2022-12-18T16:10:38;-0.70;92.70
4759;DHT22;2393;50.560;12.636;2022-12-18T16:13:08;-0.60;92.50
4759;DHT22;2393;50.560;12.636;2022-12-18T16:15:37;-0.60;93.20
4759;DHT22;2393;50.560;12.636;2022-12-18T16:18:05;-0.60;93.10